Rechercher aéroport 
image banner adimage banner adimage banner ad
image banner ad

CL62 - Station 125

Situé à Calabasas, United States

ICAO - CL62, IATA -

Données fournies par Airmate  

Information générale

Coordonnées: N34°9'5" W118°41'52"
Élévation : 850 feet MSL.
Variation magnétique : 14° East
Voir autres Aéroports à California

Données opérationnelles

Special qualification required
Heure actuelle UTC:
Heure actuelle locale:
Météo à : KVNY - Van Nuys ( 20 km )
METAR: KVNY 191051Z AUTO 00000KT 10SM CLR 11/07 A2998 RMK AO2 SLP148 T01060072
TAF: KVNY 190602Z 1906/2006 VRB03KT P6SM SKC FM192200 15007KT P6SM SKC FM200400 VRB03KT P6SM SKC
Voir NOTAMs / SUP AIP / TFR affectant cet aéroport [VIEW]
Fréquences de communication: [VIEW]

Pistes:

Coordonnées de l'aéroport

Adresse: Calabasas United States

Vue satellite de CL62